Time;durP1;ratioP1;P1;durP2;ratioP2;P2;SDS_P1;SDS_P2;PMS_P1;PMS_P2;Temp;Humidity;BMP_temperature;BMP_pressure;BME280_temperature;BME280_humidity;BME280_pressure;Samples;Min_cycle;Max_cycle;Signal;HPM_P1;HPM_P2
2023/01/14 00:42:32;;;;;;;;;;;22.90;89.10;;;;;;6319154;22;19919;-74
2023/01/14 00:44:58;;;;;;;;;;;22.90;88.20;;;;;;6304666;22;19981;-72
2023/01/14 00:47:25;;;;;;;;;;;23.20;89.70;;;;;;6279653;22;19915;-71
2023/01/14 00:49:52;;;;;;;;;;;23.20;86.30;;;;;;6279429;22;19934;-71
2023/01/14 00:52:18;;;;;;;;;;;23.30;86.90;;;;;;6304964;22;20011;-73
2023/01/14 00:54:45;;;;;;;;;;;23.30;84.10;;;;;;6304837;22;19903;-73
2023/01/14 00:57:14;;;;;;;;;;;23.30;82.60;;;;;;6306695;22;19975;-73
2023/01/14 00:59:40;;;;;;;;;;;23.30;83.10;;;;;;6306170;22;20194;-73
2023/01/14 01:02:07;;;;;;;;;;;23.30;82.40;;;;;;6305264;22;19915;-73
2023/01/14 01:04:34;;;;;;;;;;;23.30;80.60;;;;;;6279559;22;19982;-73
2023/01/14 01:07:01;;;;;;;;;;;23.30;80.30;;;;;;6305818;22;19972;-74
2023/01/14 01:09:28;;;;;;;;;;;23.30;80.10;;;;;;6278550;22;19903;-73
2023/01/14 01:11:55;;;;;;;;;;;23.40;81.70;;;;;;6305663;22;19907;-74
2023/01/14 01:14:23;;;;;;;;;;;23.40;81.40;;;;;;6305600;22;19938;-72
2023/01/14 01:16:50;;;;;;;;;;;23.30;81.00;;;;;;6278562;22;20269;-71
2023/01/14 01:19:17;;;;;;;;;;;23.30;78.70;;;;;;6305176;22;19903;-73
2023/01/14 01:21:44;;;;;;;;;;;23.30;81.10;;;;;;6305504;22;19917;-73
2023/01/14 01:24:10;;;;;;;;;;;23.30;80.50;;;;;;6305869;22;19907;-73
2023/01/14 01:26:37;;;;;;;;;;;23.30;80.60;;;;;;6306344;22;19937;-73
2023/01/14 01:29:04;;;;;;;;;;;23.40;80.70;;;;;;6305071;22;19914;-73
2023/01/14 01:31:31;;;;;;;;;;;23.50;82.10;;;;;;6305429;22;19913;-73
2023/01/14 01:33:58;;;;;;;;;;;23.60;82.70;;;;;;6305837;22;19902;-73
2023/01/14 01:36:26;;;;;;;;;;;23.80;82.20;;;;;;6277851;22;20327;-73
2023/01/14 01:38:53;;;;;;;;;;;23.80;81.00;;;;;;6305733;22;19903;-73
2023/01/14 01:41:23;;;;;;;;;;;23.90;80.00;;;;;;6304580;22;20323;-74
2023/01/14 01:43:57;;;;;;;;;;;24.00;81.70;;;;;;6305521;22;19990;-73
2023/01/14 01:46:23;;;;;;;;;;;23.90;77.90;;;;;;6304872;22;19953;-73
2023/01/14 01:48:50;;;;;;;;;;;24.00;78.10;;;;;;6303965;22;19907;-73
2023/01/14 01:51:18;;;;;;;;;;;23.90;77.10;;;;;;6304604;22;19947;-73
2023/01/14 01:53:45;;;;;;;;;;;23.90;78.30;;;;;;6278905;22;19903;-73
2023/01/14 01:56:13;;;;;;;;;;;24.00;79.20;;;;;;6279394;22;20341;-74
2023/01/14 01:58:40;;;;;;;;;;;24.10;79.50;;;;;;6279344;22;19903;-74
2023/01/14 02:01:07;;;;;;;;;;;23.90;78.60;;;;;;6277506;22;19919;-74
2023/01/14 02:03:33;;;;;;;;;;;23.80;78.00;;;;;;6305130;22;20326;-74
2023/01/14 02:06:00;;;;;;;;;;;23.70;79.30;;;;;;6305604;22;19948;-73
2023/01/14 02:08:27;;;;;;;;;;;23.70;79.40;;;;;;6306592;22;20024;-72
2023/01/14 02:10:54;;;;;;;;;;;23.70;81.00;;;;;;6305356;22;19941;-72
2023/01/14 02:13:39;;;;;;;;;;;23.60;79.30;;;;;;6305051;22;19907;-72
2023/01/14 02:16:09;;;;;;;;;;;23.60;76.30;;;;;;6305711;22;19931;-72
2023/01/14 02:18:43;;;;;;;;;;;23.70;77.30;;;;;;6277901;22;19906;-75
2023/01/14 02:21:16;;;;;;;;;;;23.70;77.80;;;;;;6277396;22;19910;-74
2023/01/14 02:23:49;;;;;;;;;;;23.80;77.10;;;;;;6304499;22;20398;-73
2023/01/14 02:26:24;;;;;;;;;;;23.80;76.70;;;;;;6304693;22;19903;-75
2023/01/14 02:28:51;;;;;;;;;;;23.80;76.50;;;;;;6305711;22;20001;-73
2023/01/14 02:31:28;;;;;;;;;;;23.80;76.90;;;;;;6305287;22;19907;-73
2023/01/14 02:33:58;;;;;;;;;;;23.90;76.90;;;;;;6278833;22;19903;-72
2023/01/14 02:36:44;;;;;;;;;;;24.10;77.40;;;;;;6304437;22;19990;-72
2023/01/14 03:36:34;;;;;;;;;;;24.50;71.70;;;;;;6300038;22;19988;-71
2023/01/14 03:39:02;;;;;;;;;;;24.50;71.50;;;;;;6307489;22;19915;-72
2023/01/14 03:44:20;;;;;;;;;;;24.60;71.20;;;;;;6307465;22;19948;-73
2023/01/14 03:46:47;;;;;;;;;;;24.60;70.80;;;;;;6280729;22;19907;-72
2023/01/14 03:49:14;;;;;;;;;;;24.60;70.90;;;;;;6280258;22;19903;-72
2023/01/14 03:51:42;;;;;;;;;;;24.60;70.90;;;;;;6307475;22;19903;-72
2023/01/14 03:54:11;;;;;;;;;;;24.60;71.90;;;;;;6280795;22;19907;-72
2023/01/14 03:56:48;;;;;;;;;;;24.60;70.60;;;;;;6280659;22;20281;-72
2023/01/14 03:59:19;;;;;;;;;;;24.60;71.10;;;;;;6307379;22;19941;-73
2023/01/14 04:01:46;;;;;;;;;;;24.60;70.80;;;;;;6280139;22;19961;-72
2023/01/14 04:04:13;;;;;;;;;;;24.60;71.20;;;;;;6280446;22;19907;-72
2023/01/14 04:06:40;;;;;;;;;;;24.60;72.00;;;;;;6280041;22;20238;-72
2023/01/14 04:09:06;;;;;;;;;;;24.50;72.10;;;;;;6280025;22;19907;-72
2023/01/14 04:11:33;;;;;;;;;;;24.50;71.80;;;;;;6307423;22;19926;-72
2023/01/14 04:16:44;;;;;;;;;;;24.50;70.60;;;;;;6307757;22;20238;-72
2023/01/14 04:19:11;;;;;;;;;;;24.60;71.10;;;;;;6308175;22;19910;-72
2023/01/14 04:21:38;;;;;;;;;;;24.60;70.50;;;;;;6307342;22;19914;-72
2023/01/14 04:24:04;;;;;;;;;;;24.60;69.90;;;;;;6307516;22;20314;-72
2023/01/14 04:26:31;;;;;;;;;;;24.60;71.10;;;;;;6307550;22;19914;-72
2023/01/14 04:28:58;;;;;;;;;;;24.60;69.20;;;;;;6280174;22;19914;-72
2023/01/14 04:31:24;;;;;;;;;;;24.70;70.30;;;;;;6307385;22;19956;-73
2023/01/14 04:33:51;;;;;;;;;;;24.70;70.90;;;;;;6307729;22;20238;-72
2023/01/14 04:36:18;;;;;;;;;;;24.80;71.10;;;;;;6307660;22;19930;-72
